Hendersonville, NC (28791)

11:47 AM EST on December 06, 2016 (GMT -0500)
Maplewood Ct off Hwy 191 in City | | Change Station

Elev 2133 ft 35.33 °N, 82.48 °W | Updated 468 days ago

Rain
Rain
45 °F
Feels Like 41 °F
N
6
Wind Variable Wind from East
Gusts mph

Today
High -- | Low -- °F
--% Chance of Precip.
Yesterday
High -- | Low -- °F
Precip. -- in
Pressure 29.81 in
Visibility 2.0 miles
Clouds Scattered Clouds 1000 ft
Overcast 1800 ft
Windchill 41 °F
Dew Point 40 °F
Humidity 81%
Rainfall in
Snow Depth Not available.
7:25 AM 5:17 PM
Waxing Crescent, 43% visible
SPECI KAVL 061609Z 16009KT 2SM SCT010 OVC018 07/04 A2981 RMK AO2 SFC VIS 10 T00670039
Pressure 29.81 in
Visibility 2.0 miles
Clouds Scattered Clouds 1000 ft
Overcast 1800 ft
Windchill 41 °F
Dew Point 40 °F
Humidity 81%
Rainfall in
Snow Depth Not available.
7:25 AM 5:17 PM
Waxing Crescent, 43% visible
SPECI KAVL 061609Z 16009KT 2SM SCT010 OVC018 07/04 A2981 RMK AO2 SFC VIS 10 T00670039

10-Day Weather Forecast

Almanac

Astronomy

Dec. 06, 2016 Rise Set
Actual Time
Civil Twilight
Nautical Twilight
Astronomical Twilight
Moon
Length of Visible Light
Length of Day
Tomorrow will be .
, % of the Moon is Illuminated

Today's Extremes

State Highs State Lows

Community

WunderPhotos

Upload Photos

1,955,983 photos uploaded!

WunderBlog® & News

Nearby

Air Quality

  Air Quality AQ Index Pollutant
Not available.

Snow Depth

Station Depth Elevation

Earthquake Activity

City Distance Mag. Time & Date
Minimum magnitude displayed is 2.5.

Coastal Water Temperatures

Place Temperature

Stations

Nearby Weather Stations

Station Location Temp. Windchill Dew Point Humidity Wind Precip. Elev Updated Type
                   

Watches & Warnings

There are currently no watches in effect.